Pythagoras — C6ZO4 — position and weather

sailwx.info

Track history (hours):
 
Tides and Currents Weather Stations Pressure Air Temp Water Temp Dewpoint Dewpoint Depression Visibility Wind Speed Wind Dir Waves Ship Positions

Pythagoras

Last reported at 2017-Feb-10 21:16 UTC. Time now 2017-Feb-24 10:41 UTC.
Position N 09°11' W 079°53'.
Warning: this ship's position is 13 days out of date.

Length 190 m; draft 11.5 m.

Type: Cargo ship. MMSI: 311061300.

Date/timePositionNaut miles runAvg speedWind from/ knotsBaromVisibWave heightAir tempDewpointWater temp
2017-Feb-10 21:16N 09°11' W 079°53'3 4.6
2017-Feb-10 20:33N 09°13' W 079°56'0 0.1
2017-Feb-10 19:28N 09°13' W 079°56'0 0.0
2017-Feb-10 18:31N 09°13' W 079°56'0 0.0
2017-Feb-10 17:25N 09°13' W 079°56'0 0.0
2017-Feb-10 16:22N 09°13' W 079°56'0 0.0
2017-Feb-10 15:31N 09°13' W 079°56'0 0.0
2017-Feb-10 14:25N 09°13' W 079°56'0 0.0
2017-Feb-10 12:04N 09°13' W 079°56'0 0.0
2017-Feb-10 09:28N 09°13' W 079°56'0 0.1
2017-Feb-10 08:08N 09°13' W 079°56'1 1.2
2017-Feb-10 07:33N 09°13' W 079°56'3 2.9
2017-Feb-10 06:33N 09°16' W 079°55'0 0.4
2017-Feb-10 05:33N 09°17' W 079°55'1 0.7
2017-Feb-10 04:33N 09°17' W 079°55'5 5.5
2017-Feb-10 03:33N 09°23' W 079°55'0 0.1
2017-Feb-10 02:32N 09°23' W 079°55'1 0.7
2017-Feb-10 01:33N 09°23' W 079°55'3 3.0
2017-Feb-10 00:33N 09°26' W 079°55'5 4.8
2017-Feb-09 23:33N 09°28' W 079°60'0 0.2
2017-Feb-09 22:15N 09°28' W 080°00'0 0.1
2017-Feb-09 21:33N 09°28' W 080°00'0 0.2
2017-Feb-09 20:27N 09°28' W 080°00'0 0.0
2017-Feb-09 19:09N 09°28' W 080°00'0 0.0
2017-Feb-09 15:30N 09°28' W 080°00'0 0.0
2017-Feb-09 14:27N 09°28' W 080°00'0 0.0
2017-Feb-09 08:30N 09°28' W 080°00'0 0.0
2017-Feb-09 07:33N 09°28' W 080°00'0 0.0
2017-Feb-09 06:27N 09°28' W 080°00'0 0.0
2017-Feb-09 00:06N 09°28' W 080°00'0 0.0
2017-Feb-08 23:27N 09°28' W 080°00'0 0.0
2017-Feb-08 18:18N 09°28' W 080°00'0 0.0
2017-Feb-08 11:17N 09°28' W 080°00'0 0.0
2017-Feb-08 10:27N 09°28' W 080°00'0 0.0
2017-Feb-08 09:32N 09°28' W 080°00'0 0.0
2017-Feb-08 06:21N 09°28' W 079°60'0 0.0
2017-Feb-08 05:26N 09°28' W 079°60'0 0.1
2017-Feb-08 04:32N 09°28' W 080°00'0 0.0
2017-Feb-08 03:11N 09°28' W 080°00'0 0.0
2017-Feb-08 00:23N 09°28' W 080°00'0 0.0
2017-Feb-07 23:32N 09°28' W 080°00'0 0.0
2017-Feb-07 22:29N 09°28' W 080°00'0 0.0
2017-Feb-07 21:32N 09°28' W 080°00'0 0.1
2017-Feb-07 20:32N 09°28' W 080°00'0 0.1
2017-Feb-07 19:20N 09°28' W 080°00'0 0.0
2017-Feb-07 18:33N 09°28' W 080°00'0 0.1
2017-Feb-07 17:26N 09°28' W 080°00'0 0.0
2017-Feb-07 15:29N 09°28' W 079°60'0 0.1
2017-Feb-07 14:29N 09°28' W 080°00'0 0.1
2017-Feb-07 13:29N 09°28' W 079°60'0 0.1
2017-Feb-07 12:23N 09°28' W 080°00'0 0.0
2017-Feb-07 09:05N 09°28' W 080°00'0 0.0
2017-Feb-07 08:26N 09°28' W 080°00'0 0.0
2017-Feb-07 07:23N 09°28' W 080°00'0 0.0
2017-Feb-07 04:17N 09°28' W 080°00'0 0.1
2017-Feb-07 03:32N 09°28' W 079°60'0 0.0
2017-Feb-07 02:05N 09°28' W 079°60'0 0.0
2017-Feb-06 23:20N 09°28' W 079°60'0 0.1
2017-Feb-06 22:29N 09°28' W 079°60'0 0.0
2017-Feb-06 21:29N 09°28' W 079°60'0 0.0
2017-Feb-06 20:32N 09°28' W 079°60'0 0.0
2017-Feb-06 19:29N 09°28' W 079°60'0 0.0
2017-Feb-06 18:29N 09°28' W 079°60'0 0.0
2017-Feb-06 17:29N 09°28' W 079°60'0 0.0
2017-Feb-06 16:32N 09°28' W 079°60'0 0.0
2017-Feb-06 15:29N 09°28' W 079°60'0 0.0
2017-Feb-06 13:08N 09°28' W 079°60'0 0.0
2017-Feb-06 11:17N 09°28' W 079°60'0 0.0
2017-Feb-06 10:29N 09°28' W 079°60'0 0.0
2017-Feb-06 09:32N 09°28' W 079°60'0 0.0
2017-Feb-06 08:32N 09°28' W 079°60'0 0.0
2017-Feb-06 06:23N 09°28' W 080°00'0 0.3
2017-Feb-06 05:33N 09°28' W 080°00'7 6.9
2017-Feb-06 04:33N 09°30' W 079°54'  
2017-Feb-01 12:33N 29°56' W 090°21'0 0.1
2017-Feb-01 11:29N 29°56' W 090°21'0 0.0
2017-Feb-01 10:29N 29°56' W 090°21'0 0.0
2017-Feb-01 09:29N 29°56' W 090°21'0 0.0
2017-Feb-01 08:23N 29°56' W 090°21'0 0.0
2017-Feb-01 03:11N 29°56' W 090°21'  
Track history (hours):
 
Tides and Currents Weather Stations Pressure Air Temp Water Temp Dewpoint Dewpoint Depression Visibility Wind Speed Wind Dir Waves Ship Positions

Pythagoras

Last reported at 2017-Feb-10 21:16 UTC. Time now 2017-Feb-24 10:41 UTC.
Position N 09°11' W 079°53'.
Warning: this ship's position is 13 days out of date.

Length 190 m; draft 11.5 m.

Type: Cargo ship. MMSI: 311061300.

Date/timePositionNaut miles runAvg speedWind from/ knotsBaromVisibWave heightAir tempDewpointWater temp
2017-Feb-10 21:16N 09°11' W 079°53'3 4.6
2017-Feb-10 20:33N 09°13' W 079°56'0 0.1
2017-Feb-10 19:28N 09°13' W 079°56'0 0.0
2017-Feb-10 18:31N 09°13' W 079°56'0 0.0
2017-Feb-10 17:25N 09°13' W 079°56'0 0.0
2017-Feb-10 16:22N 09°13' W 079°56'0 0.0
2017-Feb-10 15:31N 09°13' W 079°56'0 0.0
2017-Feb-10 14:25N 09°13' W 079°56'0 0.0
2017-Feb-10 12:04N 09°13' W 079°56'0 0.0
2017-Feb-10 09:28N 09°13' W 079°56'0 0.1
2017-Feb-10 08:08N 09°13' W 079°56'1 1.2
2017-Feb-10 07:33N 09°13' W 079°56'3 2.9
2017-Feb-10 06:33N 09°16' W 079°55'0 0.4
2017-Feb-10 05:33N 09°17' W 079°55'1 0.7
2017-Feb-10 04:33N 09°17' W 079°55'5 5.5
2017-Feb-10 03:33N 09°23' W 079°55'0 0.1
2017-Feb-10 02:32N 09°23' W 079°55'1 0.7
2017-Feb-10 01:33N 09°23' W 079°55'3 3.0
2017-Feb-10 00:33N 09°26' W 079°55'5 4.8
2017-Feb-09 23:33N 09°28' W 079°60'0 0.2
2017-Feb-09 22:15N 09°28' W 080°00'0 0.1
2017-Feb-09 21:33N 09°28' W 080°00'0 0.2
2017-Feb-09 20:27N 09°28' W 080°00'0 0.0
2017-Feb-09 19:09N 09°28' W 080°00'0 0.0
2017-Feb-09 15:30N 09°28' W 080°00'0 0.0
2017-Feb-09 14:27N 09°28' W 080°00'0 0.0
2017-Feb-09 08:30N 09°28' W 080°00'0 0.0
2017-Feb-09 07:33N 09°28' W 080°00'0 0.0
2017-Feb-09 06:27N 09°28' W 080°00'0 0.0
2017-Feb-09 00:06N 09°28' W 080°00'0 0.0
2017-Feb-08 23:27N 09°28' W 080°00'0 0.0
2017-Feb-08 18:18N 09°28' W 080°00'0 0.0
2017-Feb-08 11:17N 09°28' W 080°00'0 0.0
2017-Feb-08 10:27N 09°28' W 080°00'0 0.0
2017-Feb-08 09:32N 09°28' W 080°00'0 0.0
2017-Feb-08 06:21N 09°28' W 079°60'0 0.0
2017-Feb-08 05:26N 09°28' W 079°60'0 0.1
2017-Feb-08 04:32N 09°28' W 080°00'0 0.0
2017-Feb-08 03:11N 09°28' W 080°00'0 0.0
2017-Feb-08 00:23N 09°28' W 080°00'0 0.0
2017-Feb-07 23:32N 09°28' W 080°00'0 0.0
2017-Feb-07 22:29N 09°28' W 080°00'0 0.0
2017-Feb-07 21:32N 09°28' W 080°00'0 0.1
2017-Feb-07 20:32N 09°28' W 080°00'0 0.1
2017-Feb-07 19:20N 09°28' W 080°00'0 0.0
2017-Feb-07 18:33N 09°28' W 080°00'0 0.1
2017-Feb-07 17:26N 09°28' W 080°00'0 0.0
2017-Feb-07 15:29N 09°28' W 079°60'0 0.1
2017-Feb-07 14:29N 09°28' W 080°00'0 0.1
2017-Feb-07 13:29N 09°28' W 079°60'0 0.1
2017-Feb-07 12:23N 09°28' W 080°00'0 0.0
2017-Feb-07 09:05N 09°28' W 080°00'0 0.0
2017-Feb-07 08:26N 09°28' W 080°00'0 0.0
2017-Feb-07 07:23N 09°28' W 080°00'0 0.0
2017-Feb-07 04:17N 09°28' W 080°00'0 0.1
2017-Feb-07 03:32N 09°28' W 079°60'0 0.0
2017-Feb-07 02:05N 09°28' W 079°60'0 0.0
2017-Feb-06 23:20N 09°28' W 079°60'0 0.1
2017-Feb-06 22:29N 09°28' W 079°60'0 0.0
2017-Feb-06 21:29N 09°28' W 079°60'0 0.0
2017-Feb-06 20:32N 09°28' W 079°60'0 0.0
2017-Feb-06 19:29N 09°28' W 079°60'0 0.0
2017-Feb-06 18:29N 09°28' W 079°60'0 0.0
2017-Feb-06 17:29N 09°28' W 079°60'0 0.0
2017-Feb-06 16:32N 09°28' W 079°60'0 0.0
2017-Feb-06 15:29N 09°28' W 079°60'0 0.0
2017-Feb-06 13:08N 09°28' W 079°60'0 0.0
2017-Feb-06 11:17N 09°28' W 079°60'0 0.0
2017-Feb-06 10:29N 09°28' W 079°60'0 0.0
2017-Feb-06 09:32N 09°28' W 079°60'0 0.0
2017-Feb-06 08:32N 09°28' W 079°60'0 0.0
2017-Feb-06 06:23N 09°28' W 080°00'0 0.3
2017-Feb-06 05:33N 09°28' W 080°00'7 6.9
2017-Feb-06 04:33N 09°30' W 079°54'  
2017-Feb-01 12:33N 29°56' W 090°21'0 0.1
2017-Feb-01 11:29N 29°56' W 090°21'0 0.0
2017-Feb-01 10:29N 29°56' W 090°21'0 0.0
2017-Feb-01 09:29N 29°56' W 090°21'0 0.0
2017-Feb-01 08:23N 29°56' W 090°21'0 0.0
2017-Feb-01 03:11N 29°56' W 090°21'  

Dump ship's entire track history